sensor_id;sensor_type;location;lat;lon;timestamp;P1;durP1;ratioP1;P2;durP2;ratioP2
10653;SDS011;5375;51.250;6.776;2023-02-15T00:01:53;5.20;;;4.33;;
10653;SDS011;5375;51.250;6.776;2023-02-15T00:04:23;5.80;;;4.53;;
10653;SDS011;5375;51.250;6.776;2023-02-15T00:07:15;6.17;;;4.50;;
10653;SDS011;5375;51.250;6.776;2023-02-15T00:09:45;5.23;;;4.37;;
10653;SDS011;5375;51.250;6.776;2023-02-15T00:12:14;6.80;;;5.20;;
10653;SDS011;5375;51.250;6.776;2023-02-15T00:14:41;6.37;;;4.87;;
10653;SDS011;5375;51.250;6.776;2023-02-15T00:17:09;5.77;;;4.43;;
10653;SDS011;5375;51.250;6.776;2023-02-15T00:19:37;5.90;;;4.27;;
10653;SDS011;5375;51.250;6.776;2023-02-15T00:22:05;5.83;;;4.50;;
10653;SDS011;5375;51.250;6.776;2023-02-15T00:24:32;5.80;;;4.50;;
10653;SDS011;5375;51.250;6.776;2023-02-15T00:27:00;6.60;;;4.90;;
10653;SDS011;5375;51.250;6.776;2023-02-15T00:29:28;5.30;;;4.53;;
10653;SDS011;5375;51.250;6.776;2023-02-15T00:31:55;5.57;;;4.70;;
10653;SDS011;5375;51.250;6.776;2023-02-15T00:34:23;4.60;;;4.10;;
10653;SDS011;5375;51.250;6.776;2023-02-15T00:36:51;6.93;;;4.90;;
10653;SDS011;5375;51.250;6.776;2023-02-15T00:39:18;5.90;;;4.67;;
10653;SDS011;5375;51.250;6.776;2023-02-15T00:41:46;7.93;;;5.23;;
10653;SDS011;5375;51.250;6.776;2023-02-15T00:44:14;5.73;;;4.80;;
10653;SDS011;5375;51.250;6.776;2023-02-15T00:46:40;6.63;;;4.60;;
10653;SDS011;5375;51.250;6.776;2023-02-15T00:49:07;7.40;;;4.93;;
10653;SDS011;5375;51.250;6.776;2023-02-15T00:51:35;5.73;;;4.60;;
10653;SDS011;5375;51.250;6.776;2023-02-15T00:54:03;5.83;;;4.60;;
10653;SDS011;5375;51.250;6.776;2023-02-15T00:56:31;5.30;;;4.70;;
10653;SDS011;5375;51.250;6.776;2023-02-15T00:58:58;5.10;;;4.57;;
10653;SDS011;5375;51.250;6.776;2023-02-15T01:01:26;6.13;;;4.60;;
10653;SDS011;5375;51.250;6.776;2023-02-15T01:03:53;5.73;;;4.30;;
10653;SDS011;5375;51.250;6.776;2023-02-15T01:06:21;5.30;;;4.30;;
10653;SDS011;5375;51.250;6.776;2023-02-15T01:08:49;5.70;;;4.30;;
10653;SDS011;5375;51.250;6.776;2023-02-15T01:11:17;6.87;;;4.63;;
10653;SDS011;5375;51.250;6.776;2023-02-15T01:13:49;6.37;;;4.63;;
10653;SDS011;5375;51.250;6.776;2023-02-15T01:19:37;4.63;;;4.10;;
10653;SDS011;5375;51.250;6.776;2023-02-15T01:22:04;4.43;;;4.03;;
10653;SDS011;5375;51.250;6.776;2023-02-15T01:24:30;8.87;;;4.00;;
10653;SDS011;5375;51.250;6.776;2023-02-15T01:26:57;5.57;;;4.30;;
10653;SDS011;5375;51.250;6.776;2023-02-15T01:29:23;7.40;;;4.83;;
10653;SDS011;5375;51.250;6.776;2023-02-15T01:31:51;8.43;;;4.40;;
10653;SDS011;5375;51.250;6.776;2023-02-15T01:34:18;9.20;;;4.90;;
10653;SDS011;5375;51.250;6.776;2023-02-15T01:36:46;5.20;;;4.50;;
10653;SDS011;5375;51.250;6.776;2023-02-15T01:39:14;5.67;;;4.50;;
10653;SDS011;5375;51.250;6.776;2023-02-15T01:41:41;5.23;;;4.70;;
10653;SDS011;5375;51.250;6.776;2023-02-15T01:47:15;6.07;;;4.57;;
10653;SDS011;5375;51.250;6.776;2023-02-15T01:49:58;4.97;;;4.23;;
10653;SDS011;5375;51.250;6.776;2023-02-15T01:55:16;7.13;;;5.03;;
10653;SDS011;5375;51.250;6.776;2023-02-15T01:57:44;6.23;;;4.80;;
10653;SDS011;5375;51.250;6.776;2023-02-15T02:00:13;6.27;;;5.10;;
10653;SDS011;5375;51.250;6.776;2023-02-15T02:02:42;6.30;;;4.60;;
10653;SDS011;5375;51.250;6.776;2023-02-15T02:05:13;5.30;;;4.37;;
10653;SDS011;5375;51.250;6.776;2023-02-15T02:07:41;5.30;;;4.80;;
10653;SDS011;5375;51.250;6.776;2023-02-15T02:10:12;5.73;;;5.10;;
10653;SDS011;5375;51.250;6.776;2023-02-15T02:12:43;6.67;;;4.67;;
10653;SDS011;5375;51.250;6.776;2023-02-15T02:15:13;6.20;;;5.37;;
10653;SDS011;5375;51.250;6.776;2023-02-15T02:20:40;5.60;;;5.00;;
10653;SDS011;5375;51.250;6.776;2023-02-15T02:23:51;5.50;;;4.50;;
10653;SDS011;5375;51.250;6.776;2023-02-15T02:26:51;6.10;;;5.00;;
10653;SDS011;5375;51.250;6.776;2023-02-15T02:32:12;5.37;;;4.50;;
10653;SDS011;5375;51.250;6.776;2023-02-15T02:34:49;8.30;;;4.60;;
10653;SDS011;5375;51.250;6.776;2023-02-15T02:45:28;5.23;;;4.47;;
10653;SDS011;5375;51.250;6.776;2023-02-15T02:48:36;6.73;;;4.87;;
10653;SDS011;5375;51.250;6.776;2023-02-15T02:51:04;5.27;;;4.67;;
10653;SDS011;5375;51.250;6.776;2023-02-15T02:53:31;5.07;;;4.50;;
10653;SDS011;5375;51.250;6.776;2023-02-15T02:56:02;6.27;;;5.07;;
10653;SDS011;5375;51.250;6.776;2023-02-15T02:58:43;6.03;;;5.07;;
10653;SDS011;5375;51.250;6.776;2023-02-15T03:03:51;7.63;;;5.27;;
10653;SDS011;5375;51.250;6.776;2023-02-15T03:06:32;5.90;;;4.93;;
10653;SDS011;5375;51.250;6.776;2023-02-15T03:09:07;5.60;;;5.00;;
10653;SDS011;5375;51.250;6.776;2023-02-15T03:12:06;6.80;;;5.17;;
10653;SDS011;5375;51.250;6.776;2023-02-15T03:14:36;7.03;;;4.90;;
10653;SDS011;5375;51.250;6.776;2023-02-15T03:17:05;6.67;;;5.30;;
10653;SDS011;5375;51.250;6.776;2023-02-15T03:19:35;5.90;;;5.07;;
10653;SDS011;5375;51.250;6.776;2023-02-15T03:22:15;5.87;;;5.27;;
10653;SDS011;5375;51.250;6.776;2023-02-15T03:27:18;5.23;;;4.70;;
10653;SDS011;5375;51.250;6.776;2023-02-15T03:29:53;7.00;;;5.73;;
10653;SDS011;5375;51.250;6.776;2023-02-15T03:32:24;7.53;;;5.40;;
10653;SDS011;5375;51.250;6.776;2023-02-15T03:34:55;6.50;;;5.33;;
10653;SDS011;5375;51.250;6.776;2023-02-15T03:37:40;6.33;;;5.70;;
10653;SDS011;5375;51.250;6.776;2023-02-15T03:40:16;7.47;;;5.50;;
10653;SDS011;5375;51.250;6.776;2023-02-15T03:46:34;6.87;;;5.57;;
10653;SDS011;5375;51.250;6.776;2023-02-15T03:49:22;6.70;;;4.83;;
10653;SDS011;5375;51.250;6.776;2023-02-15T03:51:55;6.53;;;5.00;;
10653;SDS011;5375;51.250;6.776;2023-02-15T03:54:27;5.87;;;5.13;;
10653;SDS011;5375;51.250;6.776;2023-02-15T03:57:09;5.37;;;4.63;;
10653;SDS011;5375;51.250;6.776;2023-02-15T03:59:59;6.13;;;4.93;;
10653;SDS011;5375;51.250;6.776;2023-02-15T04:05:31;5.20;;;4.67;;
10653;SDS011;5375;51.250;6.776;2023-02-15T04:07:58;5.03;;;4.47;;
10653;SDS011;5375;51.250;6.776;2023-02-15T04:10:25;7.13;;;4.97;;
10653;SDS011;5375;51.250;6.776;2023-02-15T04:13:10;6.53;;;4.80;;
10653;SDS011;5375;51.250;6.776;2023-02-15T04:15:37;5.53;;;4.93;;
10653;SDS011;5375;51.250;6.776;2023-02-15T04:18:21;5.37;;;4.83;;
10653;SDS011;5375;51.250;6.776;2023-02-15T04:21:07;6.57;;;5.03;;
10653;SDS011;5375;51.250;6.776;2023-02-15T04:23:52;5.53;;;4.90;;
10653;SDS011;5375;51.250;6.776;2023-02-15T04:26:37;6.40;;;5.43;;
10653;SDS011;5375;51.250;6.776;2023-02-15T04:29:04;5.00;;;4.50;;
10653;SDS011;5375;51.250;6.776;2023-02-15T04:31:29;5.53;;;4.80;;
10653;SDS011;5375;51.250;6.776;2023-02-15T04:33:56;5.03;;;4.53;;
10653;SDS011;5375;51.250;6.776;2023-02-15T04:36:22;5.67;;;4.60;;
10653;SDS011;5375;51.250;6.776;2023-02-15T04:38:49;5.60;;;4.50;;
10653;SDS011;5375;51.250;6.776;2023-02-15T04:41:16;5.33;;;4.70;;
10653;SDS011;5375;51.250;6.776;2023-02-15T04:43:44;5.47;;;4.87;;
10653;SDS011;5375;51.250;6.776;2023-02-15T04:46:11;6.07;;;4.90;;
10653;SDS011;5375;51.250;6.776;2023-02-15T04:48:38;5.00;;;4.37;;
10653;SDS011;5375;51.250;6.776;2023-02-15T04:51:06;5.00;;;4.33;;
10653;SDS011;5375;51.250;6.776;2023-02-15T04:53:34;5.13;;;4.20;;
10653;SDS011;5375;51.250;6.776;2023-02-15T04:56:00;6.00;;;4.33;;
10653;SDS011;5375;51.250;6.776;2023-02-15T04:58:28;6.77;;;3.87;;
10653;SDS011;5375;51.250;6.776;2023-02-15T05:00:56;4.63;;;4.07;;
10653;SDS011;5375;51.250;6.776;2023-02-15T05:03:25;7.20;;;4.57;;
10653;SDS011;5375;51.250;6.776;2023-02-15T05:05:52;6.40;;;3.63;;
10653;SDS011;5375;51.250;6.776;2023-02-15T05:08:20;4.07;;;3.57;;
10653;SDS011;5375;51.250;6.776;2023-02-15T05:10:48;3.83;;;3.40;;
10653;SDS011;5375;51.250;6.776;2023-02-15T05:13:14;4.03;;;3.47;;
10653;SDS011;5375;51.250;6.776;2023-02-15T05:15:41;4.03;;;3.57;;
10653;SDS011;5375;51.250;6.776;2023-02-15T05:18:19;5.27;;;3.37;;
10653;SDS011;5375;51.250;6.776;2023-02-15T05:20:48;5.37;;;3.83;;
10653;SDS011;5375;51.250;6.776;2023-02-15T05:23:15;5.30;;;3.87;;
10653;SDS011;5375;51.250;6.776;2023-02-15T05:25:47;4.97;;;3.70;;
10653;SDS011;5375;51.250;6.776;2023-02-15T05:28:33;5.40;;;3.83;;
10653;SDS011;5375;51.250;6.776;2023-02-15T05:31:15;5.17;;;4.13;;
10653;SDS011;5375;51.250;6.776;2023-02-15T05:33:44;4.20;;;3.70;;
10653;SDS011;5375;51.250;6.776;2023-02-15T05:36:12;6.93;;;3.70;;
10653;SDS011;5375;51.250;6.776;2023-02-15T05:38:39;4.70;;;3.43;;
10653;SDS011;5375;51.250;6.776;2023-02-15T05:41:06;9.30;;;3.53;;
10653;SDS011;5375;51.250;6.776;2023-02-15T05:43:34;12.33;;;4.07;;
10653;SDS011;5375;51.250;6.776;2023-02-15T05:46:01;5.70;;;3.80;;
10653;SDS011;5375;51.250;6.776;2023-02-15T05:48:29;5.53;;;3.33;;
10653;SDS011;5375;51.250;6.776;2023-02-15T05:53:29;5.00;;;3.53;;
10653;SDS011;5375;51.250;6.776;2023-02-15T05:55:56;4.93;;;3.63;;
10653;SDS011;5375;51.250;6.776;2023-02-15T05:58:26;5.10;;;3.30;;
10653;SDS011;5375;51.250;6.776;2023-02-15T06:00:53;5.37;;;3.70;;
10653;SDS011;5375;51.250;6.776;2023-02-15T06:03:21;4.40;;;3.67;;
10653;SDS011;5375;51.250;6.776;2023-02-15T06:05:48;3.83;;;3.17;;
10653;SDS011;5375;51.250;6.776;2023-02-15T06:08:15;4.93;;;3.53;;
10653;SDS011;5375;51.250;6.776;2023-02-15T06:10:43;3.63;;;3.07;;
10653;SDS011;5375;51.250;6.776;2023-02-15T06:13:12;3.70;;;3.40;;
10653;SDS011;5375;51.250;6.776;2023-02-15T06:15:38;4.17;;;3.47;;
10653;SDS011;5375;51.250;6.776;2023-02-15T06:18:06;4.10;;;3.70;;
10653;SDS011;5375;51.250;6.776;2023-02-15T06:20:32;5.20;;;3.30;;
10653;SDS011;5375;51.250;6.776;2023-02-15T06:22:59;3.97;;;3.30;;
10653;SDS011;5375;51.250;6.776;2023-02-15T06:25:26;3.80;;;2.97;;
10653;SDS011;5375;51.250;6.776;2023-02-15T06:27:54;4.63;;;3.27;;
10653;SDS011;5375;51.250;6.776;2023-02-15T06:30:21;4.80;;;3.20;;
10653;SDS011;5375;51.250;6.776;2023-02-15T06:32:48;4.03;;;3.20;;
10653;SDS011;5375;51.250;6.776;2023-02-15T06:35:14;6.87;;;3.23;;
10653;SDS011;5375;51.250;6.776;2023-02-15T06:37:40;3.67;;;3.23;;
10653;SDS011;5375;51.250;6.776;2023-02-15T06:40:08;3.60;;;3.30;;
10653;SDS011;5375;51.250;6.776;2023-02-15T06:42:35;4.23;;;3.33;;
10653;SDS011;5375;51.250;6.776;2023-02-15T06:45:04;3.37;;;3.03;;
10653;SDS011;5375;51.250;6.776;2023-02-15T06:47:30;4.80;;;3.53;;
10653;SDS011;5375;51.250;6.776;2023-02-15T06:49:57;3.47;;;3.10;;
10653;SDS011;5375;51.250;6.776;2023-02-15T06:52:24;3.70;;;3.30;;
10653;SDS011;5375;51.250;6.776;2023-02-15T06:54:50;5.00;;;3.77;;
10653;SDS011;5375;51.250;6.776;2023-02-15T06:57:16;4.63;;;3.40;;
10653;SDS011;5375;51.250;6.776;2023-02-15T06:59:44;4.63;;;3.30;;
10653;SDS011;5375;51.250;6.776;2023-02-15T07:02:12;3.90;;;3.30;;
10653;SDS011;5375;51.250;6.776;2023-02-15T07:04:38;4.47;;;3.33;;
10653;SDS011;5375;51.250;6.776;2023-02-15T07:07:09;3.80;;;3.40;;
10653;SDS011;5375;51.250;6.776;2023-02-15T07:09:38;3.90;;;2.90;;
10653;SDS011;5375;51.250;6.776;2023-02-15T07:12:06;3.73;;;2.93;;
10653;SDS011;5375;51.250;6.776;2023-02-15T07:14:51;3.73;;;3.30;;
10653;SDS011;5375;51.250;6.776;2023-02-15T07:17:17;3.57;;;3.23;;
10653;SDS011;5375;51.250;6.776;2023-02-15T07:19:44;3.50;;;3.10;;
10653;SDS011;5375;51.250;6.776;2023-02-15T07:22:12;3.93;;;2.87;;
10653;SDS011;5375;51.250;6.776;2023-02-15T07:24:39;3.63;;;3.10;;
10653;SDS011;5375;51.250;6.776;2023-02-15T07:27:07;3.20;;;2.90;;
10653;SDS011;5375;51.250;6.776;2023-02-15T07:29:34;4.63;;;3.10;;
10653;SDS011;5375;51.250;6.776;2023-02-15T07:32:02;3.83;;;3.43;;
10653;SDS011;5375;51.250;6.776;2023-02-15T07:34:30;3.77;;;3.37;;
10653;SDS011;5375;51.250;6.776;2023-02-15T07:36:57;3.23;;;2.93;;
10653;SDS011;5375;51.250;6.776;2023-02-15T07:39:24;3.37;;;2.93;;
10653;SDS011;5375;51.250;6.776;2023-02-15T07:41:51;2.97;;;2.67;;
10653;SDS011;5375;51.250;6.776;2023-02-15T07:44:19;3.70;;;2.80;;
10653;SDS011;5375;51.250;6.776;2023-02-15T07:46:47;3.27;;;2.97;;
10653;SDS011;5375;51.250;6.776;2023-02-15T07:49:14;3.33;;;3.03;;
10653;SDS011;5375;51.250;6.776;2023-02-15T07:51:42;3.97;;;3.37;;
10653;SDS011;5375;51.250;6.776;2023-02-15T07:54:11;3.33;;;3.03;;
10653;SDS011;5375;51.250;6.776;2023-02-15T07:56:38;3.53;;;3.10;;
10653;SDS011;5375;51.250;6.776;2023-02-15T07:59:06;3.37;;;3.07;;
10653;SDS011;5375;51.250;6.776;2023-02-15T08:01:35;3.60;;;3.27;;
10653;SDS011;5375;51.250;6.776;2023-02-15T08:04:05;3.00;;;2.67;;
10653;SDS011;5375;51.250;6.776;2023-02-15T08:06:33;3.20;;;2.83;;
10653;SDS011;5375;51.250;6.776;2023-02-15T08:09:01;3.43;;;2.90;;
10653;SDS011;5375;51.250;6.776;2023-02-15T08:11:31;3.80;;;3.13;;
10653;SDS011;5375;51.250;6.776;2023-02-15T08:14:11;4.63;;;2.77;;
10653;SDS011;5375;51.250;6.776;2023-02-15T08:19:22;2.83;;;2.63;;
10653;SDS011;5375;51.250;6.776;2023-02-15T08:21:59;3.97;;;2.60;;
10653;SDS011;5375;51.250;6.776;2023-02-15T08:24:30;3.50;;;3.17;;
10653;SDS011;5375;51.250;6.776;2023-02-15T08:26:58;3.17;;;2.80;;
10653;SDS011;5375;51.250;6.776;2023-02-15T08:29:25;3.13;;;2.77;;
10653;SDS011;5375;51.250;6.776;2023-02-15T08:31:53;3.50;;;2.80;;
10653;SDS011;5375;51.250;6.776;2023-02-15T08:34:23;3.10;;;2.80;;
10653;SDS011;5375;51.250;6.776;2023-02-15T08:36:49;3.17;;;2.87;;
10653;SDS011;5375;51.250;6.776;2023-02-15T08:39:16;3.43;;;2.77;;
10653;SDS011;5375;51.250;6.776;2023-02-15T08:41:43;3.27;;;2.97;;
10653;SDS011;5375;51.250;6.776;2023-02-15T08:44:10;3.33;;;2.80;;
10653;SDS011;5375;51.250;6.776;2023-02-15T08:46:37;3.03;;;2.60;;
10653;SDS011;5375;51.250;6.776;2023-02-15T08:49:04;3.10;;;2.80;;
10653;SDS011;5375;51.250;6.776;2023-02-15T08:51:35;3.83;;;2.53;;
10653;SDS011;5375;51.250;6.776;2023-02-15T08:54:03;3.20;;;2.90;;
10653;SDS011;5375;51.250;6.776;2023-02-15T08:56:32;3.23;;;2.70;;
10653;SDS011;5375;51.250;6.776;2023-02-15T08:59:00;2.70;;;2.50;;
10653;SDS011;5375;51.250;6.776;2023-02-15T09:01:31;3.33;;;2.60;;
10653;SDS011;5375;51.250;6.776;2023-02-15T09:04:03;3.07;;;2.77;;
10653;SDS011;5375;51.250;6.776;2023-02-15T09:06:31;2.87;;;2.57;;
10653;SDS011;5375;51.250;6.776;2023-02-15T09:08:57;3.30;;;2.57;;
10653;SDS011;5375;51.250;6.776;2023-02-15T09:11:24;3.10;;;2.80;;
10653;SDS011;5375;51.250;6.776;2023-02-15T09:13:56;4.67;;;2.90;;
10653;SDS011;5375;51.250;6.776;2023-02-15T09:16:24;3.23;;;2.60;;
10653;SDS011;5375;51.250;6.776;2023-02-15T09:18:52;2.93;;;2.63;;
10653;SDS011;5375;51.250;6.776;2023-02-15T09:21:19;3.47;;;2.90;;
10653;SDS011;5375;51.250;6.776;2023-02-15T09:23:47;2.80;;;2.47;;
10653;SDS011;5375;51.250;6.776;2023-02-15T09:26:18;3.00;;;2.67;;
10653;SDS011;5375;51.250;6.776;2023-02-15T09:28:46;3.17;;;2.87;;
10653;SDS011;5375;51.250;6.776;2023-02-15T09:31:17;2.80;;;2.50;;
10653;SDS011;5375;51.250;6.776;2023-02-15T09:33:45;3.53;;;2.97;;
10653;SDS011;5375;51.250;6.776;2023-02-15T09:36:54;3.03;;;2.50;;
10653;SDS011;5375;51.250;6.776;2023-02-15T10:25:43;3.10;;;2.70;;
10653;SDS011;5375;51.250;6.776;2023-02-15T10:28:20;3.77;;;2.87;;
10653;SDS011;5375;51.250;6.776;2023-02-15T10:30:56;2.90;;;2.60;;
10653;SDS011;5375;51.250;6.776;2023-02-15T10:33:36;3.23;;;2.77;;
10653;SDS011;5375;51.250;6.776;2023-02-15T10:43:39;3.20;;;2.70;;
10653;SDS011;5375;51.250;6.776;2023-02-15T10:49:21;2.87;;;2.50;;
10653;SDS011;5375;51.250;6.776;2023-02-15T10:54:54;5.13;;;2.53;;
10653;SDS011;5375;51.250;6.776;2023-02-15T11:00:18;2.80;;;2.47;;
10653;SDS011;5375;51.250;6.776;2023-02-15T11:03:02;2.33;;;2.13;;
10653;SDS011;5375;51.250;6.776;2023-02-15T11:08:15;5.97;;;2.40;;
10653;SDS011;5375;51.250;6.776;2023-02-15T11:13:22;2.77;;;2.50;;
10653;SDS011;5375;51.250;6.776;2023-02-15T11:16:00;2.83;;;2.53;;
10653;SDS011;5375;51.250;6.776;2023-02-15T11:20:58;2.40;;;2.20;;
10653;SDS011;5375;51.250;6.776;2023-02-15T11:23:25;2.57;;;2.33;;
10653;SDS011;5375;51.250;6.776;2023-02-15T11:25:54;3.10;;;2.33;;
10653;SDS011;5375;51.250;6.776;2023-02-15T11:28:31;3.60;;;2.53;;
10653;SDS011;5375;51.250;6.776;2023-02-15T11:31:21;2.73;;;2.23;;
10653;SDS011;5375;51.250;6.776;2023-02-15T11:33:52;2.60;;;2.40;;
10653;SDS011;5375;51.250;6.776;2023-02-15T11:36:34;2.80;;;2.50;;
10653;SDS011;5375;51.250;6.776;2023-02-15T11:39:10;2.43;;;2.13;;
10653;SDS011;5375;51.250;6.776;2023-02-15T11:41:40;3.20;;;2.33;;
10653;SDS011;5375;51.250;6.776;2023-02-15T11:44:13;2.37;;;2.17;;
10653;SDS011;5375;51.250;6.776;2023-02-15T11:46:43;3.33;;;2.30;;
10653;SDS011;5375;51.250;6.776;2023-02-15T11:49:19;3.50;;;2.40;;
10653;SDS011;5375;51.250;6.776;2023-02-15T11:51:48;2.50;;;2.30;;
10653;SDS011;5375;51.250;6.776;2023-02-15T11:54:18;3.97;;;2.30;;
10653;SDS011;5375;51.250;6.776;2023-02-15T11:56:48;3.37;;;2.50;;
10653;SDS011;5375;51.250;6.776;2023-02-15T11:59:17;3.50;;;2.60;;
10653;SDS011;5375;51.250;6.776;2023-02-15T12:01:49;3.83;;;2.40;;
10653;SDS011;5375;51.250;6.776;2023-02-15T12:04:23;2.77;;;2.20;;
10653;SDS011;5375;51.250;6.776;2023-02-15T12:12:56;3.30;;;2.30;;
10653;SDS011;5375;51.250;6.776;2023-02-15T12:15:41;2.40;;;2.20;;
10653;SDS011;5375;51.250;6.776;2023-02-15T12:18:17;2.97;;;2.33;;
10653;SDS011;5375;51.250;6.776;2023-02-15T12:20:59;2.57;;;2.23;;
10653;SDS011;5375;51.250;6.776;2023-02-15T12:23:48;3.50;;;2.50;;
10653;SDS011;5375;51.250;6.776;2023-02-15T12:26:23;2.57;;;2.30;;
10653;SDS011;5375;51.250;6.776;2023-02-15T12:28:53;2.63;;;2.27;;
10653;SDS011;5375;51.250;6.776;2023-02-15T12:31:32;2.60;;;2.30;;
10653;SDS011;5375;51.250;6.776;2023-02-15T12:34:02;2.60;;;2.30;;
10653;SDS011;5375;51.250;6.776;2023-02-15T12:36:42;2.77;;;2.10;;
10653;SDS011;5375;51.250;6.776;2023-02-15T12:41:45;2.70;;;2.43;;
10653;SDS011;5375;51.250;6.776;2023-02-15T12:44:26;2.33;;;2.03;;
10653;SDS011;5375;51.250;6.776;2023-02-15T12:49:35;2.60;;;2.40;;
10653;SDS011;5375;51.250;6.776;2023-02-15T12:52:03;2.60;;;2.20;;
10653;SDS011;5375;51.250;6.776;2023-02-15T12:54:40;2.40;;;2.20;;
10653;SDS011;5375;51.250;6.776;2023-02-15T12:59:51;2.47;;;2.17;;
10653;SDS011;5375;51.250;6.776;2023-02-15T13:02:25;3.43;;;2.30;;
10653;SDS011;5375;51.250;6.776;2023-02-15T13:05:22;2.40;;;2.20;;
10653;SDS011;5375;51.250;6.776;2023-02-15T13:13:11;3.50;;;2.20;;
10653;SDS011;5375;51.250;6.776;2023-02-15T13:15:44;2.60;;;2.40;;
10653;SDS011;5375;51.250;6.776;2023-02-15T13:18:23;3.10;;;2.00;;
10653;SDS011;5375;51.250;6.776;2023-02-15T13:21:00;2.57;;;2.03;;
10653;SDS011;5375;51.250;6.776;2023-02-15T13:23:42;2.80;;;2.40;;
10653;SDS011;5375;51.250;6.776;2023-02-15T13:26:19;3.83;;;2.50;;
10653;SDS011;5375;51.250;6.776;2023-02-15T13:31:31;3.60;;;2.20;;
10653;SDS011;5375;51.250;6.776;2023-02-15T13:34:12;2.63;;;2.07;;
10653;SDS011;5375;51.250;6.776;2023-02-15T13:58:21;3.37;;;2.30;;
10653;SDS011;5375;51.250;6.776;2023-02-15T14:01:30;3.70;;;2.50;;
10653;SDS011;5375;51.250;6.776;2023-02-15T14:07:13;2.67;;;2.20;;
10653;SDS011;5375;51.250;6.776;2023-02-15T14:12:34;2.67;;;2.00;;
10653;SDS011;5375;51.250;6.776;2023-02-15T14:17:43;2.37;;;2.17;;
10653;SDS011;5375;51.250;6.776;2023-02-15T14:23:08;2.27;;;2.03;;
10653;SDS011;5375;51.250;6.776;2023-02-15T14:25:54;2.60;;;2.00;;
10653;SDS011;5375;51.250;6.776;2023-02-15T14:28:28;2.80;;;2.27;;
10653;SDS011;5375;51.250;6.776;2023-02-15T14:31:02;2.37;;;2.17;;
10653;SDS011;5375;51.250;6.776;2023-02-15T14:35:55;3.77;;;2.10;;
10653;SDS011;5375;51.250;6.776;2023-02-15T14:41:04;2.17;;;1.97;;
10653;SDS011;5375;51.250;6.776;2023-02-15T14:51:57;2.57;;;2.10;;
10653;SDS011;5375;51.250;6.776;2023-02-15T15:02:43;5.40;;;2.10;;
10653;SDS011;5375;51.250;6.776;2023-02-15T15:07:58;2.47;;;1.97;;
10653;SDS011;5375;51.250;6.776;2023-02-15T15:12:59;2.30;;;2.07;;
10653;SDS011;5375;51.250;6.776;2023-02-15T15:18:54;2.63;;;2.43;;
10653;SDS011;5375;51.250;6.776;2023-02-15T15:49:58;2.37;;;2.17;;
10653;SDS011;5375;51.250;6.776;2023-02-15T15:52:24;2.60;;;2.40;;
10653;SDS011;5375;51.250;6.776;2023-02-15T15:54:52;8.23;;;2.37;;
10653;SDS011;5375;51.250;6.776;2023-02-15T15:59:57;3.33;;;2.40;;
10653;SDS011;5375;51.250;6.776;2023-02-15T16:02:25;2.20;;;2.00;;
10653;SDS011;5375;51.250;6.776;2023-02-15T16:04:52;3.07;;;2.47;;
10653;SDS011;5375;51.250;6.776;2023-02-15T16:07:22;2.23;;;2.00;;
10653;SDS011;5375;51.250;6.776;2023-02-15T16:10:03;2.60;;;2.20;;
10653;SDS011;5375;51.250;6.776;2023-02-15T16:12:45;2.40;;;2.20;;
10653;SDS011;5375;51.250;6.776;2023-02-15T16:15:14;2.97;;;2.20;;
10653;SDS011;5375;51.250;6.776;2023-02-15T16:17:51;3.10;;;2.30;;
10653;SDS011;5375;51.250;6.776;2023-02-15T16:27:56;3.17;;;2.10;;
10653;SDS011;5375;51.250;6.776;2023-02-15T16:33:09;2.80;;;2.30;;
10653;SDS011;5375;51.250;6.776;2023-02-15T16:38:34;3.23;;;2.30;;
10653;SDS011;5375;51.250;6.776;2023-02-15T16:41:06;4.10;;;2.40;;
10653;SDS011;5375;51.250;6.776;2023-02-15T16:43:34;2.80;;;2.50;;
10653;SDS011;5375;51.250;6.776;2023-02-15T16:46:06;3.57;;;2.03;;
10653;SDS011;5375;51.250;6.776;2023-02-15T16:48:39;3.30;;;2.63;;
10653;SDS011;5375;51.250;6.776;2023-02-15T16:51:08;3.10;;;2.20;;
10653;SDS011;5375;51.250;6.776;2023-02-15T16:53:34;3.43;;;2.50;;
10653;SDS011;5375;51.250;6.776;2023-02-15T16:56:02;3.07;;;2.40;;
10653;SDS011;5375;51.250;6.776;2023-02-15T17:00:58;3.30;;;2.30;;
10653;SDS011;5375;51.250;6.776;2023-02-15T17:03:25;3.90;;;2.60;;
10653;SDS011;5375;51.250;6.776;2023-02-15T17:05:53;5.17;;;2.50;;
10653;SDS011;5375;51.250;6.776;2023-02-15T17:08:41;2.93;;;2.60;;
10653;SDS011;5375;51.250;6.776;2023-02-15T17:14:10;5.93;;;2.20;;
10653;SDS011;5375;51.250;6.776;2023-02-15T17:16:29;3.03;;;2.37;;
10653;SDS011;5375;51.250;6.776;2023-02-15T17:19:21;3.13;;;2.67;;
10653;SDS011;5375;51.250;6.776;2023-02-15T17:21:52;4.47;;;2.57;;
10653;SDS011;5375;51.250;6.776;2023-02-15T17:24:25;3.90;;;2.77;;
10653;SDS011;5375;51.250;6.776;2023-02-15T17:27:00;3.40;;;2.83;;
10653;SDS011;5375;51.250;6.776;2023-02-15T17:29:43;6.27;;;2.97;;
10653;SDS011;5375;51.250;6.776;2023-02-15T17:32:18;3.43;;;2.93;;
10653;SDS011;5375;51.250;6.776;2023-02-15T17:34:50;4.13;;;3.03;;
10653;SDS011;5375;51.250;6.776;2023-02-15T17:37:32;3.53;;;2.83;;
10653;SDS011;5375;51.250;6.776;2023-02-15T17:42:43;6.77;;;2.97;;
10653;SDS011;5375;51.250;6.776;2023-02-15T17:45:09;6.00;;;3.40;;
10653;SDS011;5375;51.250;6.776;2023-02-15T17:47:35;4.57;;;2.67;;
10653;SDS011;5375;51.250;6.776;2023-02-15T17:50:01;5.80;;;3.20;;
10653;SDS011;5375;51.250;6.776;2023-02-15T17:52:29;3.90;;;3.00;;
10653;SDS011;5375;51.250;6.776;2023-02-15T17:54:55;3.43;;;2.90;;
10653;SDS011;5375;51.250;6.776;2023-02-15T17:57:55;5.67;;;3.20;;
10653;SDS011;5375;51.250;6.776;2023-02-15T18:00:20;5.30;;;3.10;;
10653;SDS011;5375;51.250;6.776;2023-02-15T18:03:06;5.70;;;3.23;;
10653;SDS011;5375;51.250;6.776;2023-02-15T18:05:53;4.20;;;3.27;;
10653;SDS011;5375;51.250;6.776;2023-02-15T18:08:37;4.60;;;3.43;;
10653;SDS011;5375;51.250;6.776;2023-02-15T18:11:21;3.97;;;3.37;;
10653;SDS011;5375;51.250;6.776;2023-02-15T18:14:09;5.13;;;3.23;;
10653;SDS011;5375;51.250;6.776;2023-02-15T18:16:36;4.50;;;3.47;;
10653;SDS011;5375;51.250;6.776;2023-02-15T18:19:04;6.80;;;3.80;;
10653;SDS011;5375;51.250;6.776;2023-02-15T18:21:37;5.93;;;3.70;;
10653;SDS011;5375;51.250;6.776;2023-02-15T18:24:03;4.57;;;4.00;;
10653;SDS011;5375;51.250;6.776;2023-02-15T18:26:28;5.33;;;3.87;;
10653;SDS011;5375;51.250;6.776;2023-02-15T18:28:54;6.37;;;4.17;;
10653;SDS011;5375;51.250;6.776;2023-02-15T18:31:20;5.87;;;4.07;;
10653;SDS011;5375;51.250;6.776;2023-02-15T18:33:49;5.37;;;3.93;;
10653;SDS011;5375;51.250;6.776;2023-02-15T18:36:39;5.00;;;3.90;;
10653;SDS011;5375;51.250;6.776;2023-02-15T18:39:25;4.30;;;3.80;;
10653;SDS011;5375;51.250;6.776;2023-02-15T18:41:55;5.50;;;4.10;;
10653;SDS011;5375;51.250;6.776;2023-02-15T18:44:21;6.90;;;3.90;;
10653;SDS011;5375;51.250;6.776;2023-02-15T18:46:47;5.93;;;4.03;;
10653;SDS011;5375;51.250;6.776;2023-02-15T18:49:12;4.97;;;3.70;;
10653;SDS011;5375;51.250;6.776;2023-02-15T18:51:38;6.13;;;4.27;;
10653;SDS011;5375;51.250;6.776;2023-02-15T18:54:05;4.83;;;3.97;;
10653;SDS011;5375;51.250;6.776;2023-02-15T18:56:39;6.33;;;4.00;;
10653;SDS011;5375;51.250;6.776;2023-02-15T18:59:05;5.80;;;3.80;;
10653;SDS011;5375;51.250;6.776;2023-02-15T19:01:30;5.20;;;4.20;;
10653;SDS011;5375;51.250;6.776;2023-02-15T19:03:56;6.17;;;3.83;;
10653;SDS011;5375;51.250;6.776;2023-02-15T19:06:22;5.60;;;4.03;;
10653;SDS011;5375;51.250;6.776;2023-02-15T19:08:49;4.40;;;3.90;;
10653;SDS011;5375;51.250;6.776;2023-02-15T19:11:20;5.83;;;4.37;;
10653;SDS011;5375;51.250;6.776;2023-02-15T19:13:48;4.40;;;3.97;;
10653;SDS011;5375;51.250;6.776;2023-02-15T19:16:21;4.97;;;4.03;;
10653;SDS011;5375;51.250;6.776;2023-02-15T19:18:54;6.30;;;4.13;;
10653;SDS011;5375;51.250;6.776;2023-02-15T19:21:20;5.70;;;4.17;;
10653;SDS011;5375;51.250;6.776;2023-02-15T19:23:48;5.73;;;4.43;;
10653;SDS011;5375;51.250;6.776;2023-02-15T19:26:18;6.40;;;4.03;;
10653;SDS011;5375;51.250;6.776;2023-02-15T19:28:44;4.97;;;3.97;;
10653;SDS011;5375;51.250;6.776;2023-02-15T19:31:10;6.43;;;4.40;;
10653;SDS011;5375;51.250;6.776;2023-02-15T19:33:37;6.50;;;4.80;;
10653;SDS011;5375;51.250;6.776;2023-02-15T19:36:04;6.50;;;4.30;;